sensor_id;sensor_type;location;lat;lon;timestamp;P1;durP1;ratioP1;P2;durP2;ratioP2
2023;SDS011;1016;48.770;9.154;2023-05-08T00:00:16;31.10;;;13.17;;
2023;SDS011;1016;48.770;9.154;2023-05-08T00:02:42;28.93;;;13.80;;
2023;SDS011;1016;48.770;9.154;2023-05-08T00:05:07;28.00;;;13.87;;
2023;SDS011;1016;48.770;9.154;2023-05-08T00:07:33;28.93;;;13.70;;
2023;SDS011;1016;48.770;9.154;2023-05-08T00:09:59;30.70;;;14.67;;
2023;SDS011;1016;48.770;9.154;2023-05-08T00:12:25;29.27;;;14.70;;
2023;SDS011;1016;48.770;9.154;2023-05-08T00:14:50;31.10;;;15.10;;
2023;SDS011;1016;48.770;9.154;2023-05-08T00:17:16;29.00;;;15.00;;
2023;SDS011;1016;48.770;9.154;2023-05-08T00:19:42;29.83;;;16.30;;
2023;SDS011;1016;48.770;9.154;2023-05-08T00:22:07;28.70;;;14.80;;
2023;SDS011;1016;48.770;9.154;2023-05-08T00:24:33;31.37;;;15.43;;
2023;SDS011;1016;48.770;9.154;2023-05-08T00:26:58;27.87;;;14.03;;
2023;SDS011;1016;48.770;9.154;2023-05-08T00:29:24;29.70;;;15.53;;
2023;SDS011;1016;48.770;9.154;2023-05-08T00:31:49;31.10;;;16.33;;
2023;SDS011;1016;48.770;9.154;2023-05-08T00:34:14;30.77;;;16.00;;
2023;SDS011;1016;48.770;9.154;2023-05-08T00:36:40;31.57;;;15.40;;
2023;SDS011;1016;48.770;9.154;2023-05-08T00:39:05;30.33;;;14.50;;
2023;SDS011;1016;48.770;9.154;2023-05-08T00:41:31;29.57;;;14.90;;
2023;SDS011;1016;48.770;9.154;2023-05-08T00:43:57;29.90;;;14.83;;
2023;SDS011;1016;48.770;9.154;2023-05-08T00:46:22;28.17;;;14.40;;
2023;SDS011;1016;48.770;9.154;2023-05-08T00:48:48;30.33;;;15.20;;
2023;SDS011;1016;48.770;9.154;2023-05-08T00:51:13;29.53;;;14.20;;
2023;SDS011;1016;48.770;9.154;2023-05-08T00:53:40;27.10;;;13.70;;
2023;SDS011;1016;48.770;9.154;2023-05-08T00:56:09;27.37;;;13.00;;
2023;SDS011;1016;48.770;9.154;2023-05-08T00:58:36;28.47;;;14.40;;
2023;SDS011;1016;48.770;9.154;2023-05-08T01:01:02;30.17;;;13.90;;
2023;SDS011;1016;48.770;9.154;2023-05-08T01:03:28;27.87;;;13.63;;
2023;SDS011;1016;48.770;9.154;2023-05-08T01:05:55;28.40;;;12.20;;
2023;SDS011;1016;48.770;9.154;2023-05-08T01:08:21;25.57;;;12.13;;
2023;SDS011;1016;48.770;9.154;2023-05-08T01:16:10;26.27;;;10.50;;
2023;SDS011;1016;48.770;9.154;2023-05-08T01:19:02;26.47;;;11.33;;
2023;SDS011;1016;48.770;9.154;2023-05-08T01:21:48;29.73;;;11.20;;
2023;SDS011;1016;48.770;9.154;2023-05-08T01:24:41;27.43;;;11.43;;
2023;SDS011;1016;48.770;9.154;2023-05-08T01:27:33;27.37;;;10.33;;
2023;SDS011;1016;48.770;9.154;2023-05-08T01:30:11;25.83;;;10.73;;
2023;SDS011;1016;48.770;9.154;2023-05-08T01:32:56;25.27;;;11.03;;
2023;SDS011;1016;48.770;9.154;2023-05-08T01:35:28;25.63;;;11.10;;
2023;SDS011;1016;48.770;9.154;2023-05-08T01:38:07;26.40;;;11.00;;
2023;SDS011;1016;48.770;9.154;2023-05-08T01:43:51;28.50;;;13.53;;
2023;SDS011;1016;48.770;9.154;2023-05-08T01:46:34;27.37;;;11.97;;
2023;SDS011;1016;48.770;9.154;2023-05-08T01:51:52;26.53;;;12.83;;
2023;SDS011;1016;48.770;9.154;2023-05-08T01:54:23;27.33;;;13.10;;
2023;SDS011;1016;48.770;9.154;2023-05-08T01:56:52;27.67;;;12.67;;
2023;SDS011;1016;48.770;9.154;2023-05-08T01:59:22;29.40;;;13.20;;
2023;SDS011;1016;48.770;9.154;2023-05-08T02:01:48;29.73;;;13.47;;
2023;SDS011;1016;48.770;9.154;2023-05-08T02:04:16;26.37;;;12.20;;
2023;SDS011;1016;48.770;9.154;2023-05-08T02:06:44;28.37;;;12.77;;
2023;SDS011;1016;48.770;9.154;2023-05-08T02:09:10;25.27;;;11.63;;
2023;SDS011;1016;48.770;9.154;2023-05-08T02:11:36;27.47;;;12.83;;
2023;SDS011;1016;48.770;9.154;2023-05-08T02:14:03;26.97;;;12.30;;
2023;SDS011;1016;48.770;9.154;2023-05-08T02:16:31;27.30;;;12.70;;
2023;SDS011;1016;48.770;9.154;2023-05-08T02:18:58;28.23;;;12.90;;
2023;SDS011;1016;48.770;9.154;2023-05-08T02:21:25;28.27;;;14.10;;
2023;SDS011;1016;48.770;9.154;2023-05-08T02:23:52;26.63;;;12.80;;
2023;SDS011;1016;48.770;9.154;2023-05-08T02:26:20;29.17;;;13.50;;
2023;SDS011;1016;48.770;9.154;2023-05-08T02:28:46;29.30;;;13.43;;
2023;SDS011;1016;48.770;9.154;2023-05-08T02:31:14;27.97;;;12.10;;
2023;SDS011;1016;48.770;9.154;2023-05-08T02:33:41;26.43;;;12.43;;
2023;SDS011;1016;48.770;9.154;2023-05-08T02:36:09;27.97;;;13.17;;
2023;SDS011;1016;48.770;9.154;2023-05-08T02:38:36;26.87;;;11.33;;
2023;SDS011;1016;48.770;9.154;2023-05-08T02:41:05;26.90;;;11.40;;
2023;SDS011;1016;48.770;9.154;2023-05-08T02:43:31;26.33;;;12.10;;
2023;SDS011;1016;48.770;9.154;2023-05-08T02:46:03;26.93;;;12.40;;
2023;SDS011;1016;48.770;9.154;2023-05-08T02:54:13;31.40;;;14.43;;
2023;SDS011;1016;48.770;9.154;2023-05-08T02:57:03;30.07;;;14.00;;
2023;SDS011;1016;48.770;9.154;2023-05-08T02:59:35;29.40;;;13.97;;
2023;SDS011;1016;48.770;9.154;2023-05-08T03:04:49;29.37;;;14.37;;
2023;SDS011;1016;48.770;9.154;2023-05-08T03:07:19;29.30;;;14.60;;
2023;SDS011;1016;48.770;9.154;2023-05-08T03:09:47;31.73;;;15.77;;
2023;SDS011;1016;48.770;9.154;2023-05-08T03:12:17;31.07;;;16.20;;
2023;SDS011;1016;48.770;9.154;2023-05-08T03:15:22;29.97;;;15.27;;
2023;SDS011;1016;48.770;9.154;2023-05-08T03:17:45;31.80;;;17.87;;
2023;SDS011;1016;48.770;9.154;2023-05-08T03:20:13;32.77;;;17.53;;
2023;SDS011;1016;48.770;9.154;2023-05-08T03:22:42;32.77;;;17.37;;
2023;SDS011;1016;48.770;9.154;2023-05-08T03:25:09;33.60;;;18.93;;
2023;SDS011;1016;48.770;9.154;2023-05-08T03:27:37;32.90;;;19.03;;
2023;SDS011;1016;48.770;9.154;2023-05-08T03:30:05;34.00;;;20.20;;
2023;SDS011;1016;48.770;9.154;2023-05-08T03:32:33;33.47;;;18.83;;
2023;SDS011;1016;48.770;9.154;2023-05-08T03:34:59;33.93;;;19.30;;
2023;SDS011;1016;48.770;9.154;2023-05-08T03:37:26;33.53;;;18.93;;
2023;SDS011;1016;48.770;9.154;2023-05-08T03:39:53;31.70;;;17.80;;
2023;SDS011;1016;48.770;9.154;2023-05-08T03:42:24;35.73;;;19.00;;
2023;SDS011;1016;48.770;9.154;2023-05-08T03:44:51;31.60;;;17.70;;
2023;SDS011;1016;48.770;9.154;2023-05-08T03:47:17;31.17;;;15.90;;
2023;SDS011;1016;48.770;9.154;2023-05-08T03:49:44;30.93;;;17.00;;
2023;SDS011;1016;48.770;9.154;2023-05-08T03:52:11;31.90;;;17.40;;
2023;SDS011;1016;48.770;9.154;2023-05-08T03:54:40;33.90;;;17.50;;
2023;SDS011;1016;48.770;9.154;2023-05-08T03:57:06;30.27;;;15.40;;
2023;SDS011;1016;48.770;9.154;2023-05-08T04:05:24;32.07;;;17.07;;
2023;SDS011;1016;48.770;9.154;2023-05-08T04:08:00;31.47;;;16.10;;
2023;SDS011;1016;48.770;9.154;2023-05-08T04:10:31;32.47;;;16.80;;
2023;SDS011;1016;48.770;9.154;2023-05-08T04:13:17;30.97;;;15.90;;
2023;SDS011;1016;48.770;9.154;2023-05-08T04:15:47;31.30;;;17.13;;
2023;SDS011;1016;48.770;9.154;2023-05-08T04:18:16;29.53;;;15.57;;
2023;SDS011;1016;48.770;9.154;2023-05-08T04:20:46;30.07;;;15.67;;
2023;SDS011;1016;48.770;9.154;2023-05-08T04:23:13;29.50;;;15.03;;
2023;SDS011;1016;48.770;9.154;2023-05-08T04:25:42;29.53;;;14.90;;
2023;SDS011;1016;48.770;9.154;2023-05-08T04:28:08;30.53;;;16.30;;
2023;SDS011;1016;48.770;9.154;2023-05-08T04:30:35;29.00;;;15.57;;
2023;SDS011;1016;48.770;9.154;2023-05-08T04:33:01;30.17;;;15.50;;
2023;SDS011;1016;48.770;9.154;2023-05-08T04:35:28;29.00;;;15.33;;
2023;SDS011;1016;48.770;9.154;2023-05-08T04:37:54;28.93;;;15.50;;
2023;SDS011;1016;48.770;9.154;2023-05-08T04:40:20;29.73;;;16.07;;
2023;SDS011;1016;48.770;9.154;2023-05-08T04:42:46;32.37;;;15.93;;
2023;SDS011;1016;48.770;9.154;2023-05-08T04:45:11;31.57;;;16.40;;
2023;SDS011;1016;48.770;9.154;2023-05-08T04:47:37;29.80;;;15.43;;
2023;SDS011;1016;48.770;9.154;2023-05-08T04:50:02;29.77;;;15.83;;
2023;SDS011;1016;48.770;9.154;2023-05-08T04:52:28;28.47;;;14.43;;
2023;SDS011;1016;48.770;9.154;2023-05-08T04:54:54;28.90;;;15.23;;
2023;SDS011;1016;48.770;9.154;2023-05-08T04:57:19;28.83;;;14.70;;
2023;SDS011;1016;48.770;9.154;2023-05-08T04:59:45;27.80;;;14.23;;
2023;SDS011;1016;48.770;9.154;2023-05-08T05:02:10;29.37;;;14.97;;
2023;SDS011;1016;48.770;9.154;2023-05-08T05:04:36;29.23;;;13.73;;
2023;SDS011;1016;48.770;9.154;2023-05-08T05:07:02;27.20;;;13.73;;
2023;SDS011;1016;48.770;9.154;2023-05-08T05:09:28;27.70;;;12.87;;
2023;SDS011;1016;48.770;9.154;2023-05-08T05:11:54;28.43;;;13.27;;
2023;SDS011;1016;48.770;9.154;2023-05-08T05:14:19;28.20;;;13.37;;
2023;SDS011;1016;48.770;9.154;2023-05-08T05:16:45;29.20;;;13.43;;
2023;SDS011;1016;48.770;9.154;2023-05-08T05:19:11;28.87;;;13.37;;
2023;SDS011;1016;48.770;9.154;2023-05-08T05:21:36;28.20;;;12.60;;
2023;SDS011;1016;48.770;9.154;2023-05-08T05:24:03;28.73;;;14.07;;
2023;SDS011;1016;48.770;9.154;2023-05-08T05:26:29;28.10;;;13.40;;
2023;SDS011;1016;48.770;9.154;2023-05-08T05:28:55;28.13;;;14.20;;
2023;SDS011;1016;48.770;9.154;2023-05-08T05:31:21;28.00;;;13.57;;
2023;SDS011;1016;48.770;9.154;2023-05-08T05:33:46;30.13;;;15.47;;
2023;SDS011;1016;48.770;9.154;2023-05-08T05:36:12;29.40;;;14.90;;
2023;SDS011;1016;48.770;9.154;2023-05-08T05:38:37;29.90;;;14.30;;
2023;SDS011;1016;48.770;9.154;2023-05-08T05:41:02;30.30;;;14.97;;
2023;SDS011;1016;48.770;9.154;2023-05-08T05:43:28;28.80;;;14.50;;
2023;SDS011;1016;48.770;9.154;2023-05-08T05:45:53;27.93;;;14.10;;
2023;SDS011;1016;48.770;9.154;2023-05-08T05:48:22;29.17;;;14.60;;
2023;SDS011;1016;48.770;9.154;2023-05-08T05:50:48;28.90;;;14.33;;
2023;SDS011;1016;48.770;9.154;2023-05-08T05:53:13;28.30;;;13.87;;
2023;SDS011;1016;48.770;9.154;2023-05-08T05:55:39;28.80;;;14.30;;
2023;SDS011;1016;48.770;9.154;2023-05-08T05:58:05;27.97;;;13.47;;
2023;SDS011;1016;48.770;9.154;2023-05-08T06:00:30;26.30;;;13.07;;
2023;SDS011;1016;48.770;9.154;2023-05-08T06:02:56;29.50;;;14.73;;
2023;SDS011;1016;48.770;9.154;2023-05-08T06:05:22;28.50;;;14.63;;
2023;SDS011;1016;48.770;9.154;2023-05-08T06:07:48;27.37;;;13.70;;
2023;SDS011;1016;48.770;9.154;2023-05-08T06:10:13;28.57;;;14.77;;
2023;SDS011;1016;48.770;9.154;2023-05-08T06:12:39;28.90;;;13.77;;
2023;SDS011;1016;48.770;9.154;2023-05-08T06:15:05;28.73;;;12.67;;
2023;SDS011;1016;48.770;9.154;2023-05-08T06:17:31;27.63;;;12.70;;
2023;SDS011;1016;48.770;9.154;2023-05-08T06:19:57;28.73;;;13.77;;
2023;SDS011;1016;48.770;9.154;2023-05-08T06:22:22;27.60;;;13.00;;
2023;SDS011;1016;48.770;9.154;2023-05-08T06:24:48;28.57;;;13.30;;
2023;SDS011;1016;48.770;9.154;2023-05-08T06:27:18;27.73;;;12.80;;
2023;SDS011;1016;48.770;9.154;2023-05-08T06:29:44;28.87;;;13.30;;
2023;SDS011;1016;48.770;9.154;2023-05-08T06:32:11;28.30;;;12.93;;
2023;SDS011;1016;48.770;9.154;2023-05-08T06:34:37;29.20;;;13.90;;
2023;SDS011;1016;48.770;9.154;2023-05-08T06:37:02;28.10;;;14.37;;
2023;SDS011;1016;48.770;9.154;2023-05-08T06:39:28;26.73;;;13.40;;
2023;SDS011;1016;48.770;9.154;2023-05-08T06:41:53;27.60;;;13.57;;
2023;SDS011;1016;48.770;9.154;2023-05-08T06:44:19;29.70;;;14.03;;
2023;SDS011;1016;48.770;9.154;2023-05-08T06:46:44;27.00;;;13.60;;
2023;SDS011;1016;48.770;9.154;2023-05-08T06:49:10;29.07;;;13.70;;
2023;SDS011;1016;48.770;9.154;2023-05-08T06:51:35;26.67;;;13.10;;
2023;SDS011;1016;48.770;9.154;2023-05-08T06:54:02;27.33;;;13.20;;
2023;SDS011;1016;48.770;9.154;2023-05-08T06:56:31;26.83;;;13.00;;
2023;SDS011;1016;48.770;9.154;2023-05-08T06:58:57;26.53;;;12.80;;
2023;SDS011;1016;48.770;9.154;2023-05-08T07:01:22;28.43;;;12.30;;
2023;SDS011;1016;48.770;9.154;2023-05-08T07:03:48;28.03;;;12.73;;
2023;SDS011;1016;48.770;9.154;2023-05-08T07:06:13;27.30;;;12.63;;
2023;SDS011;1016;48.770;9.154;2023-05-08T07:08:39;26.17;;;12.70;;
2023;SDS011;1016;48.770;9.154;2023-05-08T07:11:04;27.70;;;13.63;;
2023;SDS011;1016;48.770;9.154;2023-05-08T07:13:30;29.57;;;12.93;;
2023;SDS011;1016;48.770;9.154;2023-05-08T07:15:56;26.40;;;12.80;;
2023;SDS011;1016;48.770;9.154;2023-05-08T07:18:21;28.83;;;13.07;;
2023;SDS011;1016;48.770;9.154;2023-05-08T07:20:47;26.80;;;11.77;;
2023;SDS011;1016;48.770;9.154;2023-05-08T07:23:12;27.10;;;13.00;;
2023;SDS011;1016;48.770;9.154;2023-05-08T07:25:38;26.07;;;12.60;;
2023;SDS011;1016;48.770;9.154;2023-05-08T07:28:03;26.90;;;13.37;;
2023;SDS011;1016;48.770;9.154;2023-05-08T07:30:29;27.20;;;13.57;;
2023;SDS011;1016;48.770;9.154;2023-05-08T07:32:54;28.73;;;13.90;;
2023;SDS011;1016;48.770;9.154;2023-05-08T07:35:20;26.73;;;13.57;;
2023;SDS011;1016;48.770;9.154;2023-05-08T07:37:46;27.53;;;14.53;;
2023;SDS011;1016;48.770;9.154;2023-05-08T07:40:11;27.53;;;13.80;;
2023;SDS011;1016;48.770;9.154;2023-05-08T07:42:40;26.30;;;12.33;;
2023;SDS011;1016;48.770;9.154;2023-05-08T07:45:06;26.53;;;13.13;;
2023;SDS011;1016;48.770;9.154;2023-05-08T07:47:33;27.90;;;12.67;;
2023;SDS011;1016;48.770;9.154;2023-05-08T07:49:59;31.30;;;13.60;;
2023;SDS011;1016;48.770;9.154;2023-05-08T07:52:25;26.93;;;12.53;;
2023;SDS011;1016;48.770;9.154;2023-05-08T07:54:50;25.67;;;12.20;;
2023;SDS011;1016;48.770;9.154;2023-05-08T07:57:16;29.60;;;12.60;;
2023;SDS011;1016;48.770;9.154;2023-05-08T07:59:41;27.00;;;13.23;;
2023;SDS011;1016;48.770;9.154;2023-05-08T08:02:07;27.50;;;13.87;;
2023;SDS011;1016;48.770;9.154;2023-05-08T08:04:32;27.27;;;13.87;;
2023;SDS011;1016;48.770;9.154;2023-05-08T08:06:58;27.40;;;13.37;;
2023;SDS011;1016;48.770;9.154;2023-05-08T08:09:23;28.07;;;14.40;;
2023;SDS011;1016;48.770;9.154;2023-05-08T08:11:49;27.50;;;13.57;;
2023;SDS011;1016;48.770;9.154;2023-05-08T08:14:15;25.53;;;11.83;;
2023;SDS011;1016;48.770;9.154;2023-05-08T08:16:40;27.93;;;11.97;;
2023;SDS011;1016;48.770;9.154;2023-05-08T08:19:06;25.20;;;10.20;;
2023;SDS011;1016;48.770;9.154;2023-05-08T08:21:32;25.17;;;10.23;;
2023;SDS011;1016;48.770;9.154;2023-05-08T08:23:58;24.73;;;9.53;;
2023;SDS011;1016;48.770;9.154;2023-05-08T08:26:23;25.53;;;10.80;;
2023;SDS011;1016;48.770;9.154;2023-05-08T08:28:49;25.20;;;9.40;;
2023;SDS011;1016;48.770;9.154;2023-05-08T08:31:15;26.10;;;9.37;;
2023;SDS011;1016;48.770;9.154;2023-05-08T08:33:41;23.47;;;8.77;;
2023;SDS011;1016;48.770;9.154;2023-05-08T08:36:14;24.50;;;8.20;;
2023;SDS011;1016;48.770;9.154;2023-05-08T08:38:40;23.13;;;7.53;;
2023;SDS011;1016;48.770;9.154;2023-05-08T08:41:06;23.37;;;7.23;;
2023;SDS011;1016;48.770;9.154;2023-05-08T08:43:32;24.47;;;7.23;;
2023;SDS011;1016;48.770;9.154;2023-05-08T08:45:58;23.33;;;7.60;;
2023;SDS011;1016;48.770;9.154;2023-05-08T08:48:34;22.33;;;7.27;;
2023;SDS011;1016;48.770;9.154;2023-05-08T08:51:01;22.47;;;7.07;;
2023;SDS011;1016;48.770;9.154;2023-05-08T08:53:34;23.23;;;7.60;;
2023;SDS011;1016;48.770;9.154;2023-05-08T08:56:02;24.23;;;6.97;;
2023;SDS011;1016;48.770;9.154;2023-05-08T08:58:31;23.03;;;7.80;;
2023;SDS011;1016;48.770;9.154;2023-05-08T09:01:01;24.90;;;8.00;;
2023;SDS011;1016;48.770;9.154;2023-05-08T09:03:29;22.90;;;7.57;;
2023;SDS011;1016;48.770;9.154;2023-05-08T09:05:55;22.70;;;7.53;;
2023;SDS011;1016;48.770;9.154;2023-05-08T09:08:25;23.30;;;7.40;;
2023;SDS011;1016;48.770;9.154;2023-05-08T09:10:51;25.07;;;7.70;;
2023;SDS011;1016;48.770;9.154;2023-05-08T09:13:20;24.20;;;8.40;;
2023;SDS011;1016;48.770;9.154;2023-05-08T09:15:46;25.90;;;8.83;;
2023;SDS011;1016;48.770;9.154;2023-05-08T09:18:14;24.70;;;8.97;;
2023;SDS011;1016;48.770;9.154;2023-05-08T09:20:39;24.73;;;8.37;;
2023;SDS011;1016;48.770;9.154;2023-05-08T09:23:05;24.57;;;8.60;;
2023;SDS011;1016;48.770;9.154;2023-05-08T09:25:41;25.83;;;9.33;;
2023;SDS011;1016;48.770;9.154;2023-05-08T09:28:15;24.60;;;9.20;;
2023;SDS011;1016;48.770;9.154;2023-05-08T09:30:48;24.70;;;9.20;;
2023;SDS011;1016;48.770;9.154;2023-05-08T09:33:18;25.47;;;9.90;;
2023;SDS011;1016;48.770;9.154;2023-05-08T09:35:46;26.80;;;9.40;;
2023;SDS011;1016;48.770;9.154;2023-05-08T09:38:31;24.27;;;9.47;;
2023;SDS011;1016;48.770;9.154;2023-05-08T09:43:35;24.60;;;8.83;;
2023;SDS011;1016;48.770;9.154;2023-05-08T09:48:51;23.90;;;8.90;;
2023;SDS011;1016;48.770;9.154;2023-05-08T09:51:29;24.90;;;9.53;;
2023;SDS011;1016;48.770;9.154;2023-05-08T09:53:56;25.37;;;9.37;;
2023;SDS011;1016;48.770;9.154;2023-05-08T09:56:38;24.47;;;9.63;;
2023;SDS011;1016;48.770;9.154;2023-05-08T09:59:04;25.37;;;9.17;;
2023;SDS011;1016;48.770;9.154;2023-05-08T10:01:46;24.67;;;9.40;;
2023;SDS011;1016;48.770;9.154;2023-05-08T10:04:12;25.63;;;9.60;;
2023;SDS011;1016;48.770;9.154;2023-05-08T10:06:38;26.20;;;9.10;;
2023;SDS011;1016;48.770;9.154;2023-05-08T10:09:13;22.73;;;7.20;;
2023;SDS011;1016;48.770;9.154;2023-05-08T10:11:40;26.00;;;6.77;;
2023;SDS011;1016;48.770;9.154;2023-05-08T10:14:06;22.40;;;6.67;;
2023;SDS011;1016;48.770;9.154;2023-05-08T10:16:38;22.37;;;7.37;;
2023;SDS011;1016;48.770;9.154;2023-05-08T10:19:12;22.33;;;7.13;;
2023;SDS011;1016;48.770;9.154;2023-05-08T10:21:40;22.50;;;6.57;;
2023;SDS011;1016;48.770;9.154;2023-05-08T10:24:18;21.87;;;6.50;;
2023;SDS011;1016;48.770;9.154;2023-05-08T10:29:21;22.77;;;7.13;;
2023;SDS011;1016;48.770;9.154;2023-05-08T10:31:54;22.90;;;7.00;;
2023;SDS011;1016;48.770;9.154;2023-05-08T10:34:22;22.40;;;6.30;;
2023;SDS011;1016;48.770;9.154;2023-05-08T10:36:50;22.10;;;6.83;;
2023;SDS011;1016;48.770;9.154;2023-05-08T10:39:17;22.20;;;6.77;;
2023;SDS011;1016;48.770;9.154;2023-05-08T10:41:47;23.00;;;7.60;;
2023;SDS011;1016;48.770;9.154;2023-05-08T10:44:14;22.07;;;6.33;;
2023;SDS011;1016;48.770;9.154;2023-05-08T10:46:53;22.47;;;7.07;;
2023;SDS011;1016;48.770;9.154;2023-05-08T10:49:33;23.00;;;6.40;;
2023;SDS011;1016;48.770;9.154;2023-05-08T10:52:29;21.63;;;6.60;;
2023;SDS011;1016;48.770;9.154;2023-05-08T10:57:29;24.73;;;7.27;;
2023;SDS011;1016;48.770;9.154;2023-05-08T10:59:55;22.37;;;7.10;;
2023;SDS011;1016;48.770;9.154;2023-05-08T11:02:28;22.70;;;7.57;;
2023;SDS011;1016;48.770;9.154;2023-05-08T11:05:10;23.37;;;7.57;;
2023;SDS011;1016;48.770;9.154;2023-05-08T11:07:57;21.90;;;6.40;;
2023;SDS011;1016;48.770;9.154;2023-05-08T11:10:29;22.50;;;6.70;;
2023;SDS011;1016;48.770;9.154;2023-05-08T11:12:57;21.50;;;6.53;;
2023;SDS011;1016;48.770;9.154;2023-05-08T11:15:37;22.70;;;6.97;;
2023;SDS011;1016;48.770;9.154;2023-05-08T11:18:07;20.90;;;5.60;;
2023;SDS011;1016;48.770;9.154;2023-05-08T11:20:38;22.57;;;6.60;;
2023;SDS011;1016;48.770;9.154;2023-05-08T11:26:12;20.70;;;5.40;;
2023;SDS011;1016;48.770;9.154;2023-05-08T11:28:54;22.03;;;5.30;;
2023;SDS011;1016;48.770;9.154;2023-05-08T11:31:21;22.40;;;6.70;;
2023;SDS011;1016;48.770;9.154;2023-05-08T11:33:47;21.77;;;6.40;;
2023;SDS011;1016;48.770;9.154;2023-05-08T11:36:17;21.80;;;6.30;;
2023;SDS011;1016;48.770;9.154;2023-05-08T11:39:05;22.27;;;7.00;;
2023;SDS011;1016;48.770;9.154;2023-05-08T11:41:36;23.20;;;6.93;;
2023;SDS011;1016;48.770;9.154;2023-05-08T11:49:14;22.17;;;6.40;;
2023;SDS011;1016;48.770;9.154;2023-05-08T11:51:42;23.10;;;7.20;;
2023;SDS011;1016;48.770;9.154;2023-05-08T11:54:13;23.07;;;7.20;;
2023;SDS011;1016;48.770;9.154;2023-05-08T11:56:41;23.53;;;7.37;;
2023;SDS011;1016;48.770;9.154;2023-05-08T11:59:08;22.93;;;6.80;;
2023;SDS011;1016;48.770;9.154;2023-05-08T12:01:34;23.37;;;7.03;;
2023;SDS011;1016;48.770;9.154;2023-05-08T12:04:04;21.87;;;6.73;;
2023;SDS011;1016;48.770;9.154;2023-05-08T12:06:31;24.03;;;8.80;;
2023;SDS011;1016;48.770;9.154;2023-05-08T12:08:58;25.40;;;8.80;;
2023;SDS011;1016;48.770;9.154;2023-05-08T12:11:24;23.47;;;8.33;;
2023;SDS011;1016;48.770;9.154;2023-05-08T12:13:51;24.70;;;8.93;;
2023;SDS011;1016;48.770;9.154;2023-05-08T12:16:18;25.17;;;9.37;;
2023;SDS011;1016;48.770;9.154;2023-05-08T12:18:45;25.27;;;8.60;;
2023;SDS011;1016;48.770;9.154;2023-05-08T12:21:13;24.27;;;8.30;;
2023;SDS011;1016;48.770;9.154;2023-05-08T12:23:39;25.13;;;9.60;;
2023;SDS011;1016;48.770;9.154;2023-05-08T12:26:04;26.00;;;10.03;;
2023;SDS011;1016;48.770;9.154;2023-05-08T12:28:32;23.63;;;8.17;;
2023;SDS011;1016;48.770;9.154;2023-05-08T12:31:01;27.60;;;9.13;;
2023;SDS011;1016;48.770;9.154;2023-05-08T12:33:27;24.27;;;8.60;;
2023;SDS011;1016;48.770;9.154;2023-05-08T12:35:54;22.87;;;7.30;;
2023;SDS011;1016;48.770;9.154;2023-05-08T12:38:24;25.43;;;9.17;;
2023;SDS011;1016;48.770;9.154;2023-05-08T12:40:50;25.70;;;9.23;;
2023;SDS011;1016;48.770;9.154;2023-05-08T12:43:32;23.77;;;7.97;;
2023;SDS011;1016;48.770;9.154;2023-05-08T12:45:58;26.37;;;10.80;;
2023;SDS011;1016;48.770;9.154;2023-05-08T12:48:25;25.47;;;8.40;;
2023;SDS011;1016;48.770;9.154;2023-05-08T12:50:51;24.10;;;8.77;;
2023;SDS011;1016;48.770;9.154;2023-05-08T12:53:17;23.93;;;8.50;;
2023;SDS011;1016;48.770;9.154;2023-05-08T12:55:51;22.70;;;7.13;;
2023;SDS011;1016;48.770;9.154;2023-05-08T12:58:24;22.87;;;7.80;;
2023;SDS011;1016;48.770;9.154;2023-05-08T13:00:51;24.70;;;8.00;;
2023;SDS011;1016;48.770;9.154;2023-05-08T13:05:49;23.10;;;7.77;;
2023;SDS011;1016;48.770;9.154;2023-05-08T13:08:15;25.40;;;7.30;;
2023;SDS011;1016;48.770;9.154;2023-05-08T13:10:59;26.10;;;7.80;;
2023;SDS011;1016;48.770;9.154;2023-05-08T13:13:26;22.90;;;7.40;;
2023;SDS011;1016;48.770;9.154;2023-05-08T13:15:54;21.83;;;6.80;;
2023;SDS011;1016;48.770;9.154;2023-05-08T13:18:22;25.13;;;7.80;;
2023;SDS011;1016;48.770;9.154;2023-05-08T13:20:50;23.80;;;6.57;;
2023;SDS011;1016;48.770;9.154;2023-05-08T13:23:16;24.07;;;7.23;;
2023;SDS011;1016;48.770;9.154;2023-05-08T13:25:41;25.03;;;7.33;;
2023;SDS011;1016;48.770;9.154;2023-05-08T13:28:07;22.70;;;6.87;;
2023;SDS011;1016;48.770;9.154;2023-05-08T13:30:37;23.52;;;7.25;;
2023;SDS011;1016;48.770;9.154;2023-05-08T13:33:03;22.37;;;7.20;;
2023;SDS011;1016;48.770;9.154;2023-05-08T13:35:29;25.10;;;10.33;;
2023;SDS011;1016;48.770;9.154;2023-05-08T13:37:55;28.13;;;11.77;;
2023;SDS011;1016;48.770;9.154;2023-05-08T13:40:22;28.40;;;12.30;;
2023;SDS011;1016;48.770;9.154;2023-05-08T13:42:48;27.63;;;12.17;;
2023;SDS011;1016;48.770;9.154;2023-05-08T13:45:14;29.80;;;13.03;;
2023;SDS011;1016;48.770;9.154;2023-05-08T13:47:40;27.60;;;12.97;;
2023;SDS011;1016;48.770;9.154;2023-05-08T13:50:07;27.60;;;12.90;;
2023;SDS011;1016;48.770;9.154;2023-05-08T13:52:33;28.07;;;13.33;;
2023;SDS011;1016;48.770;9.154;2023-05-08T13:55:00;26.83;;;12.50;;
2023;SDS011;1016;48.770;9.154;2023-05-08T13:57:25;26.73;;;12.10;;
2023;SDS011;1016;48.770;9.154;2023-05-08T13:59:51;27.67;;;11.80;;
2023;SDS011;1016;48.770;9.154;2023-05-08T14:02:16;26.53;;;12.20;;
2023;SDS011;1016;48.770;9.154;2023-05-08T14:04:42;26.50;;;12.80;;
2023;SDS011;1016;48.770;9.154;2023-05-08T14:07:07;27.30;;;11.80;;
2023;SDS011;1016;48.770;9.154;2023-05-08T14:09:33;27.63;;;12.83;;
2023;SDS011;1016;48.770;9.154;2023-05-08T14:11:58;27.87;;;12.53;;
2023;SDS011;1016;48.770;9.154;2023-05-08T14:14:24;28.50;;;12.73;;
2023;SDS011;1016;48.770;9.154;2023-05-08T14:16:49;29.27;;;13.93;;
2023;SDS011;1016;48.770;9.154;2023-05-08T14:19:15;29.53;;;13.97;;
2023;SDS011;1016;48.770;9.154;2023-05-08T14:21:43;30.60;;;13.10;;
2023;SDS011;1016;48.770;9.154;2023-05-08T14:24:08;27.30;;;13.03;;
2023;SDS011;1016;48.770;9.154;2023-05-08T14:26:34;28.60;;;13.73;;
2023;SDS011;1016;48.770;9.154;2023-05-08T14:28:59;29.60;;;13.10;;
2023;SDS011;1016;48.770;9.154;2023-05-08T14:31:25;28.90;;;13.63;;
2023;SDS011;1016;48.770;9.154;2023-05-08T14:33:50;28.00;;;13.40;;
2023;SDS011;1016;48.770;9.154;2023-05-08T14:36:17;31.57;;;14.93;;
2023;SDS011;1016;48.770;9.154;2023-05-08T14:38:43;31.70;;;15.17;;
2023;SDS011;1016;48.770;9.154;2023-05-08T14:41:08;28.57;;;14.90;;
2023;SDS011;1016;48.770;9.154;2023-05-08T14:43:34;27.77;;;14.10;;
2023;SDS011;1016;48.770;9.154;2023-05-08T14:45:59;29.83;;;14.97;;
2023;SDS011;1016;48.770;9.154;2023-05-08T14:48:25;31.80;;;16.50;;
2023;SDS011;1016;48.770;9.154;2023-05-08T14:50:51;29.77;;;16.20;;
2023;SDS011;1016;48.770;9.154;2023-05-08T14:53:17;29.53;;;16.87;;
2023;SDS011;1016;48.770;9.154;2023-05-08T14:55:42;29.70;;;17.27;;
2023;SDS011;1016;48.770;9.154;2023-05-08T14:58:08;31.23;;;17.07;;
2023;SDS011;1016;48.770;9.154;2023-05-08T15:00:33;31.27;;;17.27;;
2023;SDS011;1016;48.770;9.154;2023-05-08T15:02:59;33.27;;;18.20;;
2023;SDS011;1016;48.770;9.154;2023-05-08T15:05:24;33.50;;;17.77;;
2023;SDS011;1016;48.770;9.154;2023-05-08T15:07:50;32.37;;;17.07;;
2023;SDS011;1016;48.770;9.154;2023-05-08T15:10:16;31.73;;;17.30;;
2023;SDS011;1016;48.770;9.154;2023-05-08T15:12:41;32.60;;;18.20;;
2023;SDS011;1016;48.770;9.154;2023-05-08T15:15:07;31.03;;;17.70;;
2023;SDS011;1016;48.770;9.154;2023-05-08T15:17:32;33.60;;;17.83;;
2023;SDS011;1016;48.770;9.154;2023-05-08T15:20:01;30.60;;;18.03;;
2023;SDS011;1016;48.770;9.154;2023-05-08T15:22:28;32.63;;;19.13;;
2023;SDS011;1016;48.770;9.154;2023-05-08T15:24:53;31.30;;;18.30;;
2023;SDS011;1016;48.770;9.154;2023-05-08T15:27:19;33.23;;;19.70;;
2023;SDS011;1016;48.770;9.154;2023-05-08T15:29:44;33.83;;;19.60;;
2023;SDS011;1016;48.770;9.154;2023-05-08T15:32:11;31.30;;;17.23;;
2023;SDS011;1016;48.770;9.154;2023-05-08T15:34:37;29.60;;;16.83;;
2023;SDS011;1016;48.770;9.154;2023-05-08T15:37:02;30.53;;;17.00;;
2023;SDS011;1016;48.770;9.154;2023-05-08T15:39:28;30.63;;;17.57;;
2023;SDS011;1016;48.770;9.154;2023-05-08T15:41:53;30.30;;;17.50;;
2023;SDS011;1016;48.770;9.154;2023-05-08T15:44:19;30.47;;;16.90;;